Time;durP1;ratioP1;P1;durP2;ratioP2;P2;SDS_P1;SDS_P2;PMS_P1;PMS_P2;Temp;Humidity;BMP_temperature;BMP_pressure;BME280_temperature;BME280_humidity;BME280_pressure;Samples;Min_cycle;Max_cycle;Signal;HPM_P1;HPM_P2
2021/12/10 00:00:24;;;;;;;;;;;8.80;99.90;;;;;;4907356;29;20374;-69
2021/12/10 00:02:51;;;;;;;;;;;8.80;99.90;;;;;;4913950;29;19917;-69
2021/12/10 00:05:19;;;;;;;;;;;8.80;99.90;;;;;;4913323;29;19918;-70
2021/12/10 00:07:45;;;;;;;;;;;8.70;99.90;;;;;;4912976;29;19926;-68
2021/12/10 00:10:14;;;;;;;;;;;8.70;99.90;;;;;;4912196;29;19919;-67
2021/12/10 00:12:45;;;;;;;;;;;8.70;99.90;;;;;;4911147;29;20393;-68
2021/12/10 00:15:11;;;;;;;;;;;8.70;99.90;;;;;;4915535;29;19974;-69
2021/12/10 00:17:36;;;;;;;;;;;8.70;99.90;;;;;;4914256;29;19930;-68
2021/12/10 00:20:03;;;;;;;;;;;8.70;99.90;;;;;;4902109;29;19907;-69
2021/12/10 00:22:39;;;;;;;;;;;8.60;99.90;;;;;;4915349;29;20202;-69
2021/12/10 00:25:09;;;;;;;;;;;8.60;99.90;;;;;;4917517;29;20153;-70
2021/12/10 00:27:35;;;;;;;;;;;8.60;99.90;;;;;;4917541;29;19911;-69
2021/12/10 00:30:07;;;;;;;;;;;8.60;99.90;;;;;;4916849;29;19998;-71
2021/12/10 00:32:38;;;;;;;;;;;8.70;99.90;;;;;;4917233;29;19966;-69
2021/12/10 00:35:07;;;;;;;;;;;8.80;99.90;;;;;;4910402;29;19911;-69
2021/12/10 00:37:33;;;;;;;;;;;8.70;99.90;;;;;;4917456;29;19954;-68
2021/12/10 00:40:00;;;;;;;;;;;8.70;99.90;;;;;;4916494;29;21028;-69
2021/12/10 00:42:30;;;;;;;;;;;8.60;99.90;;;;;;4925103;29;19993;-70
2021/12/10 00:44:57;;;;;;;;;;;8.70;99.90;;;;;;4916330;29;20065;-69
2021/12/10 00:47:24;;;;;;;;;;;8.70;99.90;;;;;;4917596;29;21087;-69
2021/12/10 00:49:50;;;;;;;;;;;8.60;99.90;;;;;;4916193;29;19911;-70
2021/12/10 00:52:16;;;;;;;;;;;8.70;99.90;;;;;;4908556;29;19919;-70
2021/12/10 00:54:43;;;;;;;;;;;8.60;99.90;;;;;;4911349;29;19930;-68
2021/12/10 00:57:10;;;;;;;;;;;8.60;99.90;;;;;;4916319;29;19911;-70
2021/12/10 00:59:37;;;;;;;;;;;8.70;99.90;;;;;;4912321;29;19911;-70
2021/12/10 01:02:04;;;;;;;;;;;8.70;99.90;;;;;;4913256;29;19998;-69
2021/12/10 01:04:31;;;;;;;;;;;8.70;99.90;;;;;;4914356;29;19911;-68
2021/12/10 01:06:58;;;;;;;;;;;8.60;99.90;;;;;;4911253;29;19914;-69
2021/12/10 01:09:26;;;;;;;;;;;8.70;99.90;;;;;;4914419;29;19967;-70
2021/12/10 01:11:54;;;;;;;;;;;8.60;99.90;;;;;;4912734;29;19922;-70
2021/12/10 01:14:35;;;;;;;;;;;8.60;99.90;;;;;;4913244;29;19983;-68
2021/12/10 01:25:32;;;;;;;;;;;8.60;99.90;;;;;;4913869;29;19958;-70
2021/12/10 01:27:58;;;;;;;;;;;8.60;99.90;;;;;;4913948;29;19993;-70
2021/12/10 01:30:27;;;;;;;;;;;8.60;99.90;;;;;;4912388;29;19990;-69
2021/12/10 01:32:54;;;;;;;;;;;8.60;99.90;;;;;;4914934;29;19930;-69
2021/12/10 01:35:21;;;;;;;;;;;8.60;99.90;;;;;;4916137;29;19911;-69
2021/12/10 01:37:48;;;;;;;;;;;8.50;99.90;;;;;;4916943;29;19911;-69
2021/12/10 01:40:14;;;;;;;;;;;8.50;99.90;;;;;;4904240;29;19963;-69
2021/12/10 01:42:51;;;;;;;;;;;8.40;99.90;;;;;;4926722;29;19946;-69
2021/12/10 01:45:27;;;;;;;;;;;8.40;99.90;;;;;;4914256;29;20243;-70
2021/12/10 01:48:01;;;;;;;;;;;8.40;99.90;;;;;;4916514;29;19915;-69
2021/12/10 01:50:27;;;;;;;;;;;8.40;99.90;;;;;;4914778;29;19922;-68
2021/12/10 01:53:08;;;;;;;;;;;8.40;99.90;;;;;;4913781;29;19942;-70
2021/12/10 01:55:36;;;;;;;;;;;8.30;99.90;;;;;;4914869;29;19954;-69
2021/12/10 01:58:02;;;;;;;;;;;8.30;99.90;;;;;;4915471;29;20239;-68
2021/12/10 02:00:30;;;;;;;;;;;8.20;99.90;;;;;;4914042;29;20599;-69
2021/12/10 02:02:55;;;;;;;;;;;8.20;99.90;;;;;;4916542;29;19923;-69
2021/12/10 02:05:21;;;;;;;;;;;8.10;99.90;;;;;;4913852;29;19911;-68
2021/12/10 02:07:47;;;;;;;;;;;8.10;99.90;;;;;;4916718;29;19918;-68
2021/12/10 02:10:14;;;;;;;;;;;8.00;99.90;;;;;;4913548;29;19922;-69
2021/12/10 02:12:40;;;;;;;;;;;8.00;99.90;;;;;;4914462;29;19927;-69
2021/12/10 02:15:06;;;;;;;;;;;8.00;99.90;;;;;;4915316;29;19918;-69
2021/12/10 02:17:35;;;;;;;;;;;8.00;99.90;;;;;;4911687;29;20555;-68
2021/12/10 02:20:05;;;;;;;;;;;8.00;99.90;;;;;;4903950;29;19915;-69
2021/12/10 02:22:31;;;;;;;;;;;7.90;99.90;;;;;;4910859;29;20032;-69
2021/12/10 02:24:57;;;;;;;;;;;7.90;99.90;;;;;;4909065;29;19990;-70
2021/12/10 02:27:22;;;;;;;;;;;7.90;99.90;;;;;;4911705;29;20345;-69
2021/12/10 02:29:48;;;;;;;;;;;7.90;99.90;;;;;;4916027;29;20357;-69
2021/12/10 02:32:13;;;;;;;;;;;8.00;99.90;;;;;;4913947;29;19919;-69
2021/12/10 02:34:40;;;;;;;;;;;8.00;99.90;;;;;;4915974;29;19911;-69
2021/12/10 02:37:06;;;;;;;;;;;8.00;99.90;;;;;;4910521;29;19919;-69
2021/12/10 02:39:32;;;;;;;;;;;8.10;99.90;;;;;;4901603;29;19911;-68
2021/12/10 02:41:57;;;;;;;;;;;7.90;99.90;;;;;;4907866;29;21807;-69
2021/12/10 02:44:25;;;;;;;;;;;7.90;99.90;;;;;;4912589;29;19915;-69
2021/12/10 02:46:50;;;;;;;;;;;7.80;99.90;;;;;;4911140;29;20013;-69
2021/12/10 02:49:16;;;;;;;;;;;7.90;99.90;;;;;;4915582;29;20332;-70
2021/12/10 02:51:42;;;;;;;;;;;7.80;99.90;;;;;;4913531;29;20507;-68
2021/12/10 02:54:09;;;;;;;;;;;7.80;99.90;;;;;;4914658;29;20358;-70
2021/12/10 02:56:39;;;;;;;;;;;7.80;99.90;;;;;;4914591;29;19911;-69
2021/12/10 02:59:15;;;;;;;;;;;7.80;99.90;;;;;;4906294;29;19918;-69
2021/12/10 03:01:45;;;;;;;;;;;7.80;99.90;;;;;;4920109;29;19911;-70
2021/12/10 03:04:12;;;;;;;;;;;7.80;99.90;;;;;;4919186;29;20321;-71
2021/12/10 03:06:42;;;;;;;;;;;7.90;99.90;;;;;;4900068;29;19911;-69
2021/12/10 03:09:08;;;;;;;;;;;7.80;99.90;;;;;;4919503;29;19950;-69
2021/12/10 03:11:35;;;;;;;;;;;7.90;99.90;;;;;;4913215;29;19994;-68
2021/12/10 03:14:06;;;;;;;;;;;7.90;99.90;;;;;;4905197;29;19919;-69
2021/12/10 03:16:32;;;;;;;;;;;7.80;99.90;;;;;;4907224;29;20503;-69
2021/12/10 03:18:58;;;;;;;;;;;7.80;99.90;;;;;;4910517;29;20381;-69
2021/12/10 03:21:23;;;;;;;;;;;7.70;99.90;;;;;;4914399;29;19998;-69
2021/12/10 03:23:49;;;;;;;;;;;7.60;99.90;;;;;;4913013;29;19917;-69
2021/12/10 03:26:18;;;;;;;;;;;7.50;99.90;;;;;;4913970;29;19966;-69
2021/12/10 03:28:44;;;;;;;;;;;7.50;99.90;;;;;;4905665;29;20288;-69
2021/12/10 03:31:10;;;;;;;;;;;7.40;99.90;;;;;;4900100;29;19919;-69
2021/12/10 03:33:37;;;;;;;;;;;7.40;99.90;;;;;;4910063;29;19957;-70
2021/12/10 03:36:03;;;;;;;;;;;7.40;99.90;;;;;;4912720;29;19967;-70
2021/12/10 03:38:28;;;;;;;;;;;7.30;99.90;;;;;;4913318;29;20358;-69
2021/12/10 03:40:54;;;;;;;;;;;7.20;99.90;;;;;;4915150;29;19907;-69
2021/12/10 03:43:21;;;;;;;;;;;7.20;99.90;;;;;;4918383;29;19998;-69
2021/12/10 03:45:49;;;;;;;;;;;7.10;99.90;;;;;;4914028;29;20018;-70
2021/12/10 03:48:17;;;;;;;;;;;7.10;99.90;;;;;;4913796;29;19915;-68
2021/12/10 03:50:44;;;;;;;;;;;7.00;99.90;;;;;;4913259;29;19975;-70
2021/12/10 03:53:10;;;;;;;;;;;6.90;99.90;;;;;;4904967;29;19919;-69
2021/12/10 03:55:36;;;;;;;;;;;6.80;99.90;;;;;;4914447;29;19970;-69
2021/12/10 03:58:02;;;;;;;;;;;6.80;99.90;;;;;;4912630;29;19930;-70
2021/12/10 04:00:31;;;;;;;;;;;6.70;99.90;;;;;;4919734;29;19911;-69
2021/12/10 04:02:57;;;;;;;;;;;6.70;99.90;;;;;;4913761;29;19950;-69
2021/12/10 04:05:23;;;;;;;;;;;6.70;99.90;;;;;;4913864;29;19928;-69
2021/12/10 04:07:49;;;;;;;;;;;6.70;99.90;;;;;;4914778;29;19911;-69
2021/12/10 04:10:15;;;;;;;;;;;6.60;99.90;;;;;;4914391;29;20380;-70
2021/12/10 04:12:41;;;;;;;;;;;6.60;99.90;;;;;;4912858;29;19926;-68
2021/12/10 04:15:07;;;;;;;;;;;6.50;99.90;;;;;;4913904;29;19962;-69
2021/12/10 04:17:33;;;;;;;;;;;6.60;99.90;;;;;;4911120;29;19919;-68
2021/12/10 04:19:58;;;;;;;;;;;6.60;99.90;;;;;;4912845;29;19955;-71
2021/12/10 04:22:25;;;;;;;;;;;6.60;99.90;;;;;;4914388;29;19907;-68
2021/12/10 04:24:51;;;;;;;;;;;6.60;99.90;;;;;;4912740;29;19915;-68
2021/12/10 04:27:17;;;;;;;;;;;6.60;99.90;;;;;;4913664;29;20384;-69
2021/12/10 04:29:43;;;;;;;;;;;6.50;99.90;;;;;;4908940;29;19959;-69
2021/12/10 04:32:09;;;;;;;;;;;6.40;99.90;;;;;;4911141;29;20021;-71
2021/12/10 04:34:35;;;;;;;;;;;6.10;99.90;;;;;;4915442;29;19915;-71
2021/12/10 04:37:02;;;;;;;;;;;5.90;99.90;;;;;;4912293;29;19988;-71
2021/12/10 04:39:29;;;;;;;;;;;5.70;99.90;;;;;;4905286;29;19911;-71
2021/12/10 04:41:55;;;;;;;;;;;5.60;99.90;;;;;;4904269;29;19915;-70
2021/12/10 04:44:20;;;;;;;;;;;5.50;99.90;;;;;;4903227;29;19918;-70
2021/12/10 04:46:46;;;;;;;;;;;5.40;99.90;;;;;;4907958;29;19966;-70
2021/12/10 04:49:13;;;;;;;;;;;5.40;99.90;;;;;;4913718;29;19986;-70
2021/12/10 04:51:40;;;;;;;;;;;5.40;99.90;;;;;;4912747;29;19911;-70
2021/12/10 04:54:07;;;;;;;;;;;5.40;99.90;;;;;;4912052;29;20337;-71
2021/12/10 04:56:34;;;;;;;;;;;5.40;99.90;;;;;;4908723;29;20281;-73
2021/12/10 04:59:00;;;;;;;;;;;5.40;99.90;;;;;;4914359;29;19911;-71
2021/12/10 05:01:26;;;;;;;;;;;5.50;99.90;;;;;;4915534;29;19919;-71
2021/12/10 05:03:52;;;;;;;;;;;5.50;99.90;;;;;;4917228;29;19911;-70
2021/12/10 05:06:17;;;;;;;;;;;5.50;99.90;;;;;;4904009;29;19930;-70
2021/12/10 05:08:43;;;;;;;;;;;5.60;99.90;;;;;;4910328;29;19916;-71
2021/12/10 05:11:09;;;;;;;;;;;5.50;99.90;;;;;;4914951;29;19911;-70
2021/12/10 05:13:35;;;;;;;;;;;5.40;99.90;;;;;;4915282;29;19981;-70
2021/12/10 05:16:02;;;;;;;;;;;5.40;99.90;;;;;;4926620;29;19907;-71
2021/12/10 05:18:31;;;;;;;;;;;5.40;99.90;;;;;;4915958;29;20401;-71
2021/12/10 05:20:57;;;;;;;;;;;5.30;99.90;;;;;;4913848;29;19969;-71
2021/12/10 05:23:23;;;;;;;;;;;5.30;99.90;;;;;;4905840;29;19976;-70
2021/12/10 05:25:49;;;;;;;;;;;5.30;99.90;;;;;;4909028;29;19907;-71
2021/12/10 05:28:15;;;;;;;;;;;5.20;99.90;;;;;;4916236;29;19911;-71
2021/12/10 05:30:42;;;;;;;;;;;5.20;99.90;;;;;;4916896;29;19933;-71
2021/12/10 05:33:14;;;;;;;;;;;5.20;99.90;;;;;;4903754;29;20293;-72
2021/12/10 05:35:41;;;;;;;;;;;5.20;99.90;;;;;;4905482;29;20366;-71
2021/12/10 05:38:06;;;;;;;;;;;5.20;99.90;;;;;;4902236;29;19922;-70
2021/12/10 05:40:32;;;;;;;;;;;5.30;99.90;;;;;;4915668;29;19911;-70
2021/12/10 05:42:58;;;;;;;;;;;5.20;99.90;;;;;;4915724;29;19958;-71
2021/12/10 05:45:24;;;;;;;;;;;5.20;99.90;;;;;;4916247;29;20432;-70
2021/12/10 05:47:49;;;;;;;;;;;5.20;99.90;;;;;;4917099;29;19911;-71
2021/12/10 05:50:16;;;;;;;;;;;5.10;99.90;;;;;;4916107;29;19911;-70
2021/12/10 05:52:42;;;;;;;;;;;5.10;99.90;;;;;;4914322;29;19926;-71
2021/12/10 05:55:08;;;;;;;;;;;5.10;99.90;;;;;;4913931;29;20001;-69
2021/12/10 05:57:34;;;;;;;;;;;5.10;99.90;;;;;;4913315;29;19910;-71
2021/12/10 06:00:00;;;;;;;;;;;5.10;99.90;;;;;;4904932;29;20014;-71
2021/12/10 06:02:26;;;;;;;;;;;5.10;99.90;;;;;;4908085;29;19911;-69
2021/12/10 06:04:51;;;;;;;;;;;5.10;99.90;;;;;;4911912;29;19958;-70
2021/12/10 06:07:18;;;;;;;;;;;5.10;99.90;;;;;;4912647;29;19914;-71
2021/12/10 06:09:44;;;;;;;;;;;5.10;99.90;;;;;;4912040;29;20433;-71
2021/12/10 06:12:10;;;;;;;;;;;5.00;99.90;;;;;;4913305;29;20250;-70
2021/12/10 06:14:35;;;;;;;;;;;5.00;99.90;;;;;;4916342;29;19911;-69
2021/12/10 06:17:01;;;;;;;;;;;4.90;99.90;;;;;;4916592;29;20380;-69
2021/12/10 06:19:27;;;;;;;;;;;5.00;99.90;;;;;;4915634;29;20463;-69
2021/12/10 06:21:53;;;;;;;;;;;5.00;99.90;;;;;;4915791;29;19978;-71
2021/12/10 06:24:19;;;;;;;;;;;5.00;99.90;;;;;;4911104;29;20460;-69
2021/12/10 06:26:45;;;;;;;;;;;5.00;99.90;;;;;;4915059;29;20029;-70
2021/12/10 06:29:10;;;;;;;;;;;5.00;99.90;;;;;;4916079;29;20480;-70
2021/12/10 06:31:36;;;;;;;;;;;4.90;99.90;;;;;;4905596;29;20776;-71
2021/12/10 06:34:02;;;;;;;;;;;5.00;99.90;;;;;;4912376;29;19927;-69
2021/12/10 06:36:28;;;;;;;;;;;5.00;99.90;;;;;;4915300;29;19907;-70
2021/12/10 06:38:54;;;;;;;;;;;5.00;99.90;;;;;;4916442;29;19907;-69
2021/12/10 06:41:20;;;;;;;;;;;5.10;99.90;;;;;;4914069;29;19918;-70
2021/12/10 06:43:45;;;;;;;;;;;5.00;99.90;;;;;;4915277;29;19911;-71
2021/12/10 06:46:14;;;;;;;;;;;5.00;99.90;;;;;;4911510;29;19907;-69
2021/12/10 06:48:40;;;;;;;;;;;5.00;99.90;;;;;;4915083;29;19915;-70
2021/12/10 06:51:10;;;;;;;;;;;5.00;99.90;;;;;;4912313;29;20281;-71
2021/12/10 06:53:37;;;;;;;;;;;5.10;99.90;;;;;;4914241;29;19926;-70
2021/12/10 06:56:04;;;;;;;;;;;5.10;99.90;;;;;;4914683;29;19994;-70
2021/12/10 06:58:32;;;;;;;;;;;5.00;99.90;;;;;;4910871;29;19907;-70
2021/12/10 07:01:00;;;;;;;;;;;5.00;99.90;;;;;;4910205;29;19915;-69
2021/12/10 07:03:27;;;;;;;;;;;5.00;99.90;;;;;;4914341;29;19911;-69
2021/12/10 07:05:54;;;;;;;;;;;4.90;99.90;;;;;;4910174;29;20080;-70
2021/12/10 07:08:20;;;;;;;;;;;5.00;99.90;;;;;;4914504;29;19915;-69
2021/12/10 07:10:46;;;;;;;;;;;5.00;99.90;;;;;;4907917;29;19926;-69
2021/12/10 07:13:13;;;;;;;;;;;4.90;99.90;;;;;;4913523;29;19915;-70
2021/12/10 07:15:40;;;;;;;;;;;4.90;99.90;;;;;;4911359;29;19958;-70
2021/12/10 07:18:06;;;;;;;;;;;4.90;99.90;;;;;;4911299;29;20346;-70
2021/12/10 07:20:31;;;;;;;;;;;4.90;99.90;;;;;;4913116;29;19911;-70
2021/12/10 07:22:57;;;;;;;;;;;4.90;99.90;;;;;;4905051;29;19965;-71
2021/12/10 07:25:23;;;;;;;;;;;5.00;99.90;;;;;;4911211;29;20354;-71
2021/12/10 07:27:49;;;;;;;;;;;4.90;99.90;;;;;;4915112;29;19991;-71
2021/12/10 07:30:15;;;;;;;;;;;4.90;99.90;;;;;;4915454;29;19947;-70
2021/12/10 07:32:40;;;;;;;;;;;4.90;99.90;;;;;;4912682;29;19942;-72
2021/12/10 07:35:08;;;;;;;;;;;4.90;99.90;;;;;;4910459;29;19919;-72
2021/12/10 07:37:34;;;;;;;;;;;5.00;99.90;;;;;;4913357;29;19907;-73
2021/12/10 07:39:59;;;;;;;;;;;5.00;99.90;;;;;;4905733;29;19915;-75
2021/12/10 07:42:25;;;;;;;;;;;5.10;99.90;;;;;;4912660;29;19918;-73
2021/12/10 07:44:53;;;;;;;;;;;5.00;99.90;;;;;;4911471;29;19911;-70
2021/12/10 07:47:20;;;;;;;;;;;5.10;99.90;;;;;;4912083;29;19951;-70
2021/12/10 07:49:46;;;;;;;;;;;5.00;99.90;;;;;;4911103;29;19921;-72
2021/12/10 07:52:21;;;;;;;;;;;4.90;99.90;;;;;;4912738;29;20329;-69
2021/12/10 07:54:47;;;;;;;;;;;4.90;99.90;;;;;;4911083;29;20047;-71
2021/12/10 07:57:16;;;;;;;;;;;4.90;99.90;;;;;;4905794;29;19998;-70
2021/12/10 07:59:42;;;;;;;;;;;4.90;99.90;;;;;;4910302;29;19975;-71
2021/12/10 08:02:08;;;;;;;;;;;4.90;99.90;;;;;;4908308;29;20088;-70
2021/12/10 08:04:33;;;;;;;;;;;4.90;99.90;;;;;;4905856;29;20247;-70
2021/12/10 08:07:00;;;;;;;;;;;4.90;99.90;;;;;;4913951;29;20377;-71
2021/12/10 08:09:28;;;;;;;;;;;5.00;99.90;;;;;;4914063;29;19911;-72
2021/12/10 08:11:54;;;;;;;;;;;4.90;99.90;;;;;;4911803;29;20385;-72
2021/12/10 08:14:22;;;;;;;;;;;4.90;99.90;;;;;;4913035;29;19911;-73
2021/12/10 08:16:48;;;;;;;;;;;5.00;99.90;;;;;;4909751;29;19961;-70
2021/12/10 08:19:14;;;;;;;;;;;5.00;99.90;;;;;;4911627;29;19911;-72
2021/12/10 08:21:40;;;;;;;;;;;5.00;99.90;;;;;;4911678;29;20216;-73
2021/12/10 08:24:06;;;;;;;;;;;4.90;99.90;;;;;;4906377;29;20074;-73
2021/12/10 08:26:32;;;;;;;;;;;4.90;99.90;;;;;;4907737;29;19935;-73
2021/12/10 08:28:58;;;;;;;;;;;4.90;99.90;;;;;;4911395;29;20293;-73
2021/12/10 08:31:24;;;;;;;;;;;4.90;99.90;;;;;;4910243;29;19926;-72
2021/12/10 08:33:49;;;;;;;;;;;4.90;99.90;;;;;;4912824;29;19919;-73
2021/12/10 08:36:17;;;;;;;;;;;4.90;99.90;;;;;;4916245;29;19922;-70
2021/12/10 08:38:43;;;;;;;;;;;4.90;99.90;;;;;;4916170;29;20297;-73
2021/12/10 08:41:19;;;;;;;;;;;4.80;99.90;;;;;;4914016;29;20005;-74
2021/12/10 08:43:45;;;;;;;;;;;4.80;99.90;;;;;;4922046;29;19990;-73
2021/12/10 08:46:16;;;;;;;;;;;4.80;99.90;;;;;;4914902;29;20322;-72
2021/12/10 08:48:42;;;;;;;;;;;4.90;99.90;;;;;;4912382;29;20422;-72
2021/12/10 08:51:13;;;;;;;;;;;4.80;99.90;;;;;;4915384;29;19911;-72
2021/12/10 08:53:38;;;;;;;;;;;4.90;99.90;;;;;;4914414;29;19919;-73
2021/12/10 08:56:05;;;;;;;;;;;4.90;99.90;;;;;;4916161;29;19918;-71
2021/12/10 08:58:31;;;;;;;;;;;4.90;99.90;;;;;;4915902;29;19963;-74
2021/12/10 09:01:01;;;;;;;;;;;4.90;99.90;;;;;;4916330;29;19925;-74
2021/12/10 09:03:27;;;;;;;;;;;4.90;99.90;;;;;;4914121;29;19918;-72
2021/12/10 09:05:53;;;;;;;;;;;4.90;99.90;;;;;;4908506;29;19911;-73
2021/12/10 09:08:18;;;;;;;;;;;5.00;99.90;;;;;;4915505;29;19946;-73
2021/12/10 09:10:45;;;;;;;;;;;5.10;99.90;;;;;;4911778;29;19939;-73
2021/12/10 09:13:14;;;;;;;;;;;5.10;99.90;;;;;;4910278;29;19923;-72
2021/12/10 09:15:43;;;;;;;;;;;5.10;99.90;;;;;;4908823;29;19915;-73
2021/12/10 09:18:09;;;;;;;;;;;5.20;99.90;;;;;;4891443;29;19911;-73
2021/12/10 09:20:38;;;;;;;;;;;5.20;99.90;;;;;;4913415;29;20173;-73
2021/12/10 09:23:04;;;;;;;;;;;5.30;99.90;;;;;;4907323;29;19911;-72
2021/12/10 09:25:30;;;;;;;;;;;5.40;99.90;;;;;;4911000;29;19963;-71
2021/12/10 09:27:56;;;;;;;;;;;5.40;99.90;;;;;;4914238;29;19958;-70
2021/12/10 09:30:23;;;;;;;;;;;5.40;99.90;;;;;;4915713;29;20277;-72
2021/12/10 09:32:49;;;;;;;;;;;5.60;99.90;;;;;;4913761;29;20292;-71
2021/12/10 09:35:16;;;;;;;;;;;5.60;99.90;;;;;;4906157;29;19914;-71
2021/12/10 09:37:41;;;;;;;;;;;5.60;99.90;;;;;;4915321;29;20289;-72
2021/12/10 09:40:10;;;;;;;;;;;5.80;99.90;;;;;;4918160;29;19918;-72
2021/12/10 09:42:36;;;;;;;;;;;5.80;99.90;;;;;;4914742;29;19922;-74
2021/12/10 09:45:04;;;;;;;;;;;5.90;99.90;;;;;;4911641;29;20310;-71
2021/12/10 09:47:29;;;;;;;;;;;5.90;99.90;;;;;;4915085;29;19911;-71
2021/12/10 09:49:55;;;;;;;;;;;6.00;99.90;;;;;;4911474;29;20337;-70
2021/12/10 09:52:22;;;;;;;;;;;6.00;99.90;;;;;;4910191;29;19919;-72
2021/12/10 09:54:48;;;;;;;;;;;6.00;99.90;;;;;;4913882;29;20314;-73
2021/12/10 09:57:19;;;;;;;;;;;6.00;99.90;;;;;;4910347;29;19910;-72
2021/12/10 09:59:47;;;;;;;;;;;6.00;99.90;;;;;;4907374;29;19911;-74
2021/12/10 10:02:12;;;;;;;;;;;6.00;99.90;;;;;;4925829;29;19966;-71
2021/12/10 10:04:43;;;;;;;;;;;6.00;99.90;;;;;;4911575;29;20287;-70
2021/12/10 10:07:13;;;;;;;;;;;6.10;99.90;;;;;;4916289;29;19950;-71
2021/12/10 10:09:39;;;;;;;;;;;6.20;99.90;;;;;;4918560;29;19919;-73
2021/12/10 10:12:10;;;;;;;;;;;6.20;99.90;;;;;;4909657;29;19918;-73
2021/12/10 10:14:38;;;;;;;;;;;6.20;99.90;;;;;;4912289;29;19915;-71
2021/12/10 10:17:04;;;;;;;;;;;6.20;99.90;;;;;;4909129;29;19915;-72
2021/12/10 10:19:30;;;;;;;;;;;6.30;99.90;;;;;;4908739;29;19937;-71
2021/12/10 10:21:57;;;;;;;;;;;6.40;99.90;;;;;;4913252;29;20366;-72
2021/12/10 10:24:24;;;;;;;;;;;6.40;99.90;;;;;;4912075;29;19971;-71
2021/12/10 10:26:55;;;;;;;;;;;6.40;99.90;;;;;;4907677;29;19919;-72
2021/12/10 10:29:23;;;;;;;;;;;6.50;99.90;;;;;;4910329;29;20701;-70
2021/12/10 10:31:52;;;;;;;;;;;6.60;99.90;;;;;;4906489;29;19919;-71
2021/12/10 10:34:19;;;;;;;;;;;6.60;99.90;;;;;;4914355;29;20034;-72
2021/12/10 10:36:45;;;;;;;;;;;6.70;99.90;;;;;;4907796;29;19918;-71
2021/12/10 10:39:14;;;;;;;;;;;6.70;99.90;;;;;;4912779;29;19931;-70
2021/12/10 10:41:41;;;;;;;;;;;6.80;99.90;;;;;;4916267;29;19919;-71
2021/12/10 10:44:07;;;;;;;;;;;6.80;99.90;;;;;;4912488;29;19930;-72
2021/12/10 10:46:33;;;;;;;;;;;6.80;99.90;;;;;;4915448;29;20294;-71
2021/12/10 10:48:58;;;;;;;;;;;6.90;99.90;;;;;;4908737;29;20421;-70
2021/12/10 10:51:27;;;;;;;;;;;6.90;99.90;;;;;;4905832;29;19957;-71
2021/12/10 10:53:53;;;;;;;;;;;6.90;99.90;;;;;;4910514;29;19926;-70
2021/12/10 10:56:25;;;;;;;;;;;6.90;99.90;;;;;;4912940;29;20013;-71
2021/12/10 10:58:55;;;;;;;;;;;7.00;99.90;;;;;;4912054;29;19915;-70
2021/12/10 11:01:27;;;;;;;;;;;7.00;99.90;;;;;;4915029;29;19911;-71
2021/12/10 11:04:04;;;;;;;;;;;7.00;99.90;;;;;;4915546;29;19911;-71
2021/12/10 11:06:31;;;;;;;;;;;7.00;99.90;;;;;;4915535;29;20338;-71
2021/12/10 11:09:14;;;;;;;;;;;7.10;99.90;;;;;;4909473;29;19911;-69
2021/12/10 11:11:54;;;;;;;;;;;7.10;99.90;;;;;;4913268;29;20352;-71
2021/12/10 11:14:21;;;;;;;;;;;7.20;99.90;;;;;;4914838;29;19918;-71
2021/12/10 11:16:48;;;;;;;;;;;7.20;99.90;;;;;;4913467;29;20040;-70
2021/12/10 11:19:16;;;;;;;;;;;7.20;99.90;;;;;;4904925;29;20532;-71
2021/12/10 11:21:53;;;;;;;;;;;7.30;99.90;;;;;;4913894;29;19921;-71
2021/12/10 11:24:24;;;;;;;;;;;7.30;99.90;;;;;;4906680;29;19911;-71
2021/12/10 11:26:49;;;;;;;;;;;7.20;99.90;;;;;;4909780;29;20354;-70
2021/12/10 11:29:31;;;;;;;;;;;7.30;99.90;;;;;;4914238;29;19918;-72
2021/12/10 11:31:58;;;;;;;;;;;7.30;99.90;;;;;;4908708;29;20023;-70
2021/12/10 11:34:42;;;;;;;;;;;7.40;99.90;;;;;;4915301;29;19918;-70
2021/12/10 11:37:09;;;;;;;;;;;7.40;99.90;;;;;;4904366;29;19943;-69
2021/12/10 11:39:50;;;;;;;;;;;7.40;99.90;;;;;;4911364;29;19911;-70
2021/12/10 11:42:38;;;;;;;;;;;7.40;99.90;;;;;;4913724;29;19911;-69
2021/12/10 11:45:16;;;;;;;;;;;7.50;99.90;;;;;;4907173;29;19933;-71
2021/12/10 11:47:45;;;;;;;;;;;7.50;99.90;;;;;;4914999;29;19918;-70
2021/12/10 11:50:16;;;;;;;;;;;7.60;99.90;;;;;;4909768;29;19912;-71
2021/12/10 11:52:42;;;;;;;;;;;7.60;99.90;;;;;;4899313;29;19962;-71
2021/12/10 11:55:09;;;;;;;;;;;7.70;99.90;;;;;;4910726;29;20482;-71
2021/12/10 11:57:39;;;;;;;;;;;7.70;99.90;;;;;;4904607;29;20022;-70
2021/12/10 12:00:04;;;;;;;;;;;7.70;99.90;;;;;;4906476;29;19911;-70
2021/12/10 12:02:32;;;;;;;;;;;7.70;99.90;;;;;;4912333;29;19911;-72
2021/12/10 12:04:59;;;;;;;;;;;7.70;99.90;;;;;;4915279;29;20135;-71
2021/12/10 12:07:24;;;;;;;;;;;7.70;99.90;;;;;;4907957;29;20030;-71
2021/12/10 12:09:52;;;;;;;;;;;7.70;99.90;;;;;;4917865;29;19994;-70
2021/12/10 12:12:21;;;;;;;;;;;7.80;99.90;;;;;;4925724;29;19920;-71
2021/12/10 12:14:54;;;;;;;;;;;7.80;99.90;;;;;;4910675;29;20376;-69
2021/12/10 12:17:30;;;;;;;;;;;7.90;99.90;;;;;;4917943;29;19966;-71
2021/12/10 12:19:56;;;;;;;;;;;8.00;99.90;;;;;;4913381;29;19999;-73
2021/12/10 12:25:23;;;;;;;;;;;8.00;99.90;;;;;;4917853;29;19958;-71
2021/12/10 12:28:03;;;;;;;;;;;8.00;99.90;;;;;;4918822;29;19975;-70
2021/12/10 12:30:29;;;;;;;;;;;8.10;99.90;;;;;;4913991;29;20260;-70
2021/12/10 12:32:55;;;;;;;;;;;8.20;99.90;;;;;;4914770;29;19919;-70
2021/12/10 12:35:24;;;;;;;;;;;8.20;99.90;;;;;;4916232;29;19911;-70
2021/12/10 12:37:50;;;;;;;;;;;8.30;99.90;;;;;;4916741;29;19911;-69
2021/12/10 12:40:16;;;;;;;;;;;8.30;99.90;;;;;;4915586;29;19911;-71
2021/12/10 12:42:46;;;;;;;;;;;8.30;99.90;;;;;;4918981;29;19911;-70
2021/12/10 12:45:16;;;;;;;;;;;8.40;99.90;;;;;;4914206;29;19995;-71
2021/12/10 12:47:52;;;;;;;;;;;8.50;99.90;;;;;;4918616;29;20396;-70
2021/12/10 12:50:25;;;;;;;;;;;8.60;99.90;;;;;;4905652;29;19916;-71
2021/12/10 12:52:53;;;;;;;;;;;8.60;99.90;;;;;;4904281;29;19962;-72
2021/12/10 12:55:35;;;;;;;;;;;8.60;99.90;;;;;;4915204;29;19915;-71
2021/12/10 12:58:10;;;;;;;;;;;8.60;99.90;;;;;;4907510;29;19934;-69
2021/12/10 13:00:51;;;;;;;;;;;8.60;99.90;;;;;;4907841;29;19915;-71
2021/12/10 13:03:35;;;;;;;;;;;8.60;99.90;;;;;;4913182;29;19911;-70
2021/12/10 13:06:01;;;;;;;;;;;8.70;99.90;;;;;;4911336;29;20006;-70
2021/12/10 13:08:32;;;;;;;;;;;8.70;99.90;;;;;;4914768;29;20349;-71
2021/12/10 13:11:11;;;;;;;;;;;8.80;99.90;;;;;;4918122;29;20002;-71
2021/12/10 13:13:40;;;;;;;;;;;8.80;99.90;;;;;;4915471;29;19970;-71
2021/12/10 13:16:08;;;;;;;;;;;8.70;99.90;;;;;;4914438;29;19966;-71
2021/12/10 13:18:36;;;;;;;;;;;8.90;99.90;;;;;;4910632;29;20405;-70
2021/12/10 13:21:02;;;;;;;;;;;8.90;99.90;;;;;;4914797;29;20310;-70
2021/12/10 13:23:27;;;;;;;;;;;8.80;99.90;;;;;;4904723;29;19966;-70
2021/12/10 13:25:55;;;;;;;;;;;8.80;99.90;;;;;;4902522;29;20003;-71
2021/12/10 13:28:24;;;;;;;;;;;8.70;99.90;;;;;;4910584;29;20017;-71
2021/12/10 13:30:52;;;;;;;;;;;8.80;99.90;;;;;;4907729;29;20508;-70
2021/12/10 13:33:20;;;;;;;;;;;8.70;99.90;;;;;;4915886;29;20018;-71
2021/12/10 13:35:46;;;;;;;;;;;8.90;99.90;;;;;;4904715;29;20246;-69
2021/12/10 13:38:12;;;;;;;;;;;8.80;99.90;;;;;;4913581;29;19994;-70
2021/12/10 13:40:38;;;;;;;;;;;9.00;99.90;;;;;;4899209;29;19998;-70
2021/12/10 13:43:05;;;;;;;;;;;9.00;99.90;;;;;;4909993;29;19961;-70
2021/12/10 13:45:32;;;;;;;;;;;8.90;99.90;;;;;;4915439;29;19918;-71
2021/12/10 13:48:03;;;;;;;;;;;8.90;99.90;;;;;;4903935;29;19911;-70
2021/12/10 13:50:31;;;;;;;;;;;9.00;99.90;;;;;;4917713;29;19922;-70
2021/12/10 13:53:00;;;;;;;;;;;9.00;99.90;;;;;;4914119;29;20014;-71
2021/12/10 13:55:28;;;;;;;;;;;9.00;99.90;;;;;;4918130;29;20032;-70
2021/12/10 13:58:07;;;;;;;;;;;8.90;99.90;;;;;;4917328;29;19946;-70
2021/12/10 14:00:33;;;;;;;;;;;8.90;99.90;;;;;;4917607;29;19915;-69
2021/12/10 14:02:58;;;;;;;;;;;8.80;99.90;;;;;;4909096;29;19922;-71
2021/12/10 14:05:27;;;;;;;;;;;8.70;99.90;;;;;;4899551;29;19987;-70
2021/12/10 14:08:07;;;;;;;;;;;8.80;99.90;;;;;;4898789;29;19916;-71
2021/12/10 14:10:34;;;;;;;;;;;8.80;99.90;;;;;;4911734;29;19918;-71
2021/12/10 14:13:04;;;;;;;;;;;8.80;99.90;;;;;;4914528;29;19927;-70
2021/12/10 14:15:46;;;;;;;;;;;8.80;99.90;;;;;;4916552;29;19911;-70
2021/12/10 14:18:20;;;;;;;;;;;8.90;99.90;;;;;;4913901;29;20334;-69
2021/12/10 14:20:55;;;;;;;;;;;9.00;99.90;;;;;;4917020;29;19915;-71
2021/12/10 14:23:20;;;;;;;;;;;8.90;99.90;;;;;;4909202;29;19923;-69
2021/12/10 14:25:52;;;;;;;;;;;8.80;99.90;;;;;;4907303;29;19911;-71
2021/12/10 14:28:17;;;;;;;;;;;8.70;99.90;;;;;;4914881;29;19911;-71
2021/12/10 14:30:45;;;;;;;;;;;8.60;99.90;;;;;;4915209;29;19989;-71
2021/12/10 14:33:17;;;;;;;;;;;8.70;99.90;;;;;;4911335;29;19933;-71
2021/12/10 14:35:46;;;;;;;;;;;8.70;99.90;;;;;;4920300;29;19911;-71
2021/12/10 14:38:11;;;;;;;;;;;8.70;99.90;;;;;;4915376;29;19915;-70
2021/12/10 14:40:47;;;;;;;;;;;8.80;99.90;;;;;;4913469;29;19919;-71
2021/12/10 14:43:19;;;;;;;;;;;8.70;99.90;;;;;;4916539;29;19918;-70
2021/12/10 14:45:59;;;;;;;;;;;8.70;99.90;;;;;;4916696;29;19918;-71